Time;durP1;ratioP1;P1;durP2;ratioP2;P2;SDS_P1;SDS_P2;PMS_P1;PMS_P2;Temp;Humidity;BMP_temperature;BMP_pressure;BME280_temperature;BME280_humidity;BME280_pressure;Samples;Min_cycle;Max_cycle;Signal;HPM_P1;HPM_P2
2022/10/03 00:02:15;;;;;;;7.10;2.70;;;;;;;13.45;66.55;98723.41;224736;1241;139129;-69
2022/10/03 00:07:36;;;;;;;5.60;2.50;;;;;;;13.44;66.25;98731.44;224070;1251;139610;-65
2022/10/03 00:13:00;;;;;;;6.10;2.70;;;;;;;13.46;66.34;98729.88;224088;1244;139585;-63
2022/10/03 00:18:33;;;;;;;5.90;2.50;;;;;;;13.45;66.49;98728.93;224107;1249;139618;-66
2022/10/03 00:24:12;;;;;;;7.30;2.90;;;;;;;13.40;66.31;98735.20;224111;1254;139656;-65
2022/10/03 00:29:42;;;;;;;6.50;2.90;;;;;;;13.39;66.62;98737.25;224508;1251;139959;-65
2022/10/03 00:35:09;;;;;;;7.20;3.60;;;;;;;13.37;66.52;98725.45;224498;1244;140073;-66
2022/10/03 00:40:33;;;;;;;9.40;3.50;;;;;;;13.40;66.68;98723.06;224148;1259;139854;-67
2022/10/03 00:45:54;;;;;;;9.80;3.60;;;;;;;13.42;66.72;98725.75;224963;1243;140409;-65
2022/10/03 00:51:23;;;;;;;6.80;3.60;;;;;;;13.39;66.64;98721.37;224224;1240;138475;-66
2022/10/03 00:56:34;;;;;;;;;;;;;;;13.37;66.76;98715.11;224103;1251;139207;-65
2022/10/03 01:01:47;;;;;;;8.00;3.70;;;;;;;13.34;66.67;98708.75;224182;1251;125402;-65
2022/10/03 01:07:05;;;;;;;6.50;3.10;;;;;;;13.30;66.55;98710.52;224054;1258;139634;-64
2022/10/03 01:12:37;;;;;;;7.90;3.20;;;;;;;13.31;66.69;98715.60;224088;1250;139574;-64
2022/10/03 01:18:09;;;;;;;6.80;3.40;;;;;;;13.35;66.70;98706.35;224103;1254;140151;-63
2022/10/03 01:23:30;;;;;;;8.90;3.70;;;;;;;13.37;66.69;98696.39;223899;1252;139244;-62
2022/10/03 01:34:24;;;;;;;9.80;4.10;;;;;;;13.28;66.53;98699.06;224168;1251;139277;-64
2022/10/03 01:39:45;;;;;;;9.60;3.30;;;;;;;13.24;66.56;98699.38;224242;1249;139110;-65
2022/10/03 01:45:06;;;;;;;8.00;3.50;;;;;;;13.23;66.35;98702.43;224888;1244;139961;-66
2022/10/03 01:50:58;;;;;;;6.30;3.10;;;;;;;13.25;66.55;98699.84;224096;1260;139465;-66
2022/10/03 01:56:51;;;;;;;7.00;3.80;;;;;;;13.27;66.66;98689.69;224598;1241;139162;-65
2022/10/03 02:02:08;;;;;;;9.20;3.60;;;;;;;13.22;66.56;98702.70;224667;1248;139163;-64
2022/10/03 02:07:21;;;;;;;6.80;3.40;;;;;;;13.20;66.64;98705.94;224043;1257;138984;-65
2022/10/03 02:12:45;;;;;;;8.90;2.80;;;;;;;13.18;66.73;98709.11;223995;1248;139071;-65
2022/10/03 02:18:07;;;;;;;8.30;3.20;;;;;;;13.21;66.75;98715.80;224085;1250;140282;-66
2022/10/03 02:23:37;;;;;;;8.20;3.30;;;;;;;13.30;66.94;98707.34;224121;1248;139386;-65
2022/10/03 02:29:02;;;;;;;8.30;3.50;;;;;;;13.35;66.98;98706.70;224097;1251;139314;-64
2022/10/03 02:34:31;;;;;;;7.50;4.10;;;;;;;13.37;66.76;98711.17;224175;1251;138982;-64
2022/10/03 02:39:49;;;;;;;9.40;4.40;;;;;;;13.33;66.65;98715.21;224131;1251;139692;-64
2022/10/03 02:45:29;;;;;;;9.40;4.40;;;;;;;13.29;66.67;98709.67;224848;1244;138763;-63
2022/10/03 02:51:10;;;;;;;10.90;3.70;;;;;;;13.30;66.76;98710.16;223974;1251;139721;-63
2022/10/03 02:56:34;;;;;;;10.60;3.90;;;;;;;13.35;66.95;98706.76;224106;1250;139644;-63
2022/10/03 03:01:49;;;;;;;6.60;3.70;;;;;;;13.38;66.65;98704.34;224134;1248;140862;-65
2022/10/03 03:07:22;;;;;;;7.30;3.60;;;;;;;13.37;66.56;98706.58;224135;1254;140855;-66
2022/10/03 03:12:44;;;;;;;6.40;3.40;;;;;;;13.36;66.74;98703.29;224802;1240;140963;-71
2022/10/03 03:18:21;;;;;;;6.20;3.00;;;;;;;13.30;66.57;98696.75;224786;1241;139593;-68
2022/10/03 03:23:45;;;;;;;9.80;3.60;;;;;;;13.32;66.72;98697.33;224126;1257;139794;-64
2022/10/03 03:29:00;;;;;;;6.70;2.90;;;;;;;13.39;66.63;98691.45;224749;1241;139440;-66
2022/10/03 03:34:27;;;;;;;8.30;3.50;;;;;;;13.40;66.80;98688.68;224733;1250;139865;-66
2022/10/03 03:40:07;;;;;;;7.90;3.40;;;;;;;13.41;66.53;98696.41;224865;1244;139326;-63
2022/10/03 03:45:19;;;;;;;7.80;3.50;;;;;;;13.38;66.59;98691.14;224234;1248;139627;-63
2022/10/03 03:50:59;;;;;;;9.20;3.80;;;;;;;13.35;66.73;98689.82;224092;1250;138705;-64
2022/10/03 03:56:19;;;;;;;8.90;3.40;;;;;;;13.35;66.80;98691.91;224679;1247;140351;-63
2022/10/03 04:01:58;;;;;;;23.30;15.60;;;;;;;13.38;66.71;98686.84;224712;1244;139547;-64
2022/10/03 04:07:38;;;;;;;9.90;4.20;;;;;;;13.38;66.78;98684.75;224666;1241;139462;-63
2022/10/03 04:13:12;;;;;;;7.90;3.40;;;;;;;13.38;66.92;98685.13;224764;1243;139772;-63
2022/10/03 04:18:58;;;;;;;8.20;2.80;;;;;;;13.36;66.73;98685.47;224174;1248;139271;-66
2022/10/03 04:24:22;;;;;;;8.60;3.00;;;;;;;13.34;66.65;98677.98;224784;1242;141167;-67
2022/10/03 04:29:47;;;;;;;10.40;3.40;;;;;;;13.29;66.75;98673.86;224838;1241;139665;-67
2022/10/03 04:35:11;;;;;;;7.10;2.70;;;;;;;13.24;66.64;98672.12;224117;1251;139360;-65
2022/10/03 04:40:43;;;;;;;;;;;;;;;13.17;66.50;98664.64;224800;1244;139341;-67
2022/10/03 04:46:04;;;;;;;13.50;2.80;;;;;;;13.15;66.70;98675.11;224653;1241;127321;-65
2022/10/03 04:51:16;;;;;;;10.00;2.70;;;;;;;13.17;66.88;98673.37;224904;1244;140825;-66
2022/10/03 04:56:25;;;;;;;8.70;2.60;;;;;;;13.19;66.77;98673.95;224109;1251;140722;-65
2022/10/03 05:01:41;;;;;;;10.20;2.70;;;;;;;13.23;66.71;98674.00;224730;1241;139847;-67
2022/10/03 05:06:57;;;;;;;7.00;2.60;;;;;;;13.22;66.81;98674.73;224116;1251;140435;-66
2022/10/03 05:12:34;;;;;;;5.70;2.60;;;;;;;13.26;66.55;98679.47;224713;1244;140387;-65
2022/10/03 05:17:44;;;;;;;7.00;2.30;;;;;;;13.26;66.63;98680.88;224084;1254;140430;-65
2022/10/03 05:23:10;;;;;;;7.30;2.50;;;;;;;13.27;66.69;98683.65;223984;1244;139599;-64
2022/10/03 05:28:43;;;;;;;7.30;2.70;;;;;;;13.28;66.64;98672.55;224698;1241;140099;-64
2022/10/03 05:33:59;;;;;;;7.80;2.10;;;;;;;13.24;66.59;98670.15;224168;1252;139642;-65
2022/10/03 05:39:21;;;;;;;8.00;2.00;;;;;;;13.28;66.57;98675.55;223923;1252;140260;-65
2022/10/03 05:44:39;;;;;;;6.30;2.60;;;;;;;13.31;66.42;98682.61;224039;1248;140093;-64
2022/10/03 05:50:14;;;;;;;10.20;2.60;;;;;;;13.30;66.41;98686.05;223989;1251;139708;-63
2022/10/03 05:55:50;;;;;;;9.90;2.80;;;;;;;13.29;66.25;98689.02;223851;1254;139473;-65
2022/10/03 06:01:23;;;;;;;10.00;1.90;;;;;;;13.29;66.38;98692.93;224094;1245;139626;-72
2022/10/03 06:07:06;;;;;;;6.40;1.90;;;;;;;13.31;66.11;98700.79;224820;1241;140201;-66
2022/10/03 06:12:41;;;;;;;5.10;1.60;;;;;;;13.28;66.27;98713.20;223993;1248;139549;-66
2022/10/03 06:17:59;;;;;;;5.70;1.80;;;;;;;13.30;66.42;98723.16;224087;1246;139232;-66
2022/10/03 06:23:40;;;;;;;6.90;2.60;;;;;;;13.28;66.23;98714.80;224057;1251;139159;-72
2022/10/03 06:29:20;;;;;;;5.70;1.80;;;;;;;13.24;65.94;98711.70;224860;1244;140183;-65
2022/10/03 06:35:07;;;;;;;5.80;1.70;;;;;;;13.27;66.09;98714.83;224839;1236;140826;-69
2022/10/03 06:40:38;;;;;;;10.30;2.10;;;;;;;13.28;66.00;98719.90;224615;1244;139278;-66
2022/10/03 06:46:06;;;;;;;6.60;1.90;;;;;;;13.29;65.98;98718.29;224214;1253;140340;-64
2022/10/03 06:51:52;;;;;;;8.70;2.00;;;;;;;13.30;65.83;98729.01;224180;1244;140416;-64
2022/10/03 06:57:08;;;;;;;6.10;1.90;;;;;;;13.35;65.90;98725.28;224025;1250;139391;-65
2022/10/03 07:02:23;;;;;;;10.00;2.10;;;;;;;13.38;65.82;98730.00;224079;1251;139259;-68
2022/10/03 07:07:35;;;;;;;6.80;2.20;;;;;;;13.37;65.83;98727.89;224785;1244;139222;-67
2022/10/03 07:12:46;;;;;;;5.50;2.20;;;;;;;13.37;65.76;98722.75;224116;1248;139017;-69
2022/10/03 07:18:44;;;;;;;9.10;2.00;;;;;;;13.33;65.56;98726.83;224068;1253;139925;-70
2022/10/03 07:24:15;;;;;;;8.20;1.90;;;;;;;13.30;65.57;98727.83;223803;1251;140882;-65
2022/10/03 07:29:40;;;;;;;6.20;2.40;;;;;;;13.25;65.72;98733.65;224115;1247;139547;-67
2022/10/03 07:35:19;;;;;;;5.60;2.10;;;;;;;13.24;65.97;98736.95;224041;1251;139906;-65
2022/10/03 07:40:58;;;;;;;7.40;2.50;;;;;;;13.20;65.90;98739.77;224673;1237;139834;-64
2022/10/03 07:46:27;;;;;;;8.80;2.30;;;;;;;13.18;66.19;98743.28;223925;1251;140007;-63
2022/10/03 07:51:44;;;;;;;7.70;2.10;;;;;;;13.18;66.25;98754.19;224223;1245;140127;-63
2022/10/03 07:57:24;;;;;;;5.80;1.90;;;;;;;13.14;66.47;98754.45;224093;1243;139764;-66
2022/10/03 08:02:27;;;;;;;4.60;1.90;;;;;;;13.10;66.55;98756.18;224145;1237;139122;-64
2022/10/03 08:07:52;;;;;;;4.50;1.40;;;;;;;13.03;66.52;98752.77;224767;1244;139379;-63
2022/10/03 08:13:11;;;;;;;6.00;2.30;;;;;;;13.09;66.79;98749.16;224027;1245;139762;-63
2022/10/03 08:18:44;;;;;;;5.40;1.70;;;;;;;13.24;66.96;98751.90;223965;1251;139616;-64
2022/10/03 08:24:13;;;;;;;6.70;2.20;;;;;;;13.33;67.01;98758.41;224097;1251;139464;-64
2022/10/03 08:29:16;;;;;;;5.60;1.90;;;;;;;13.34;66.81;98758.83;224043;1245;139419;-64
2022/10/03 08:34:27;;;;;;;10.60;2.20;;;;;;;13.35;66.71;98757.69;224752;1240;140179;-63
2022/10/03 08:40:02;;;;;;;6.80;1.90;;;;;;;13.34;66.68;98759.72;224846;1244;141576;-63
2022/10/03 08:45:29;;;;;;;6.70;2.20;;;;;;;13.34;67.05;98759.92;224037;1251;139552;-63
2022/10/03 08:50:46;;;;;;;6.70;2.00;;;;;;;13.31;66.80;98764.10;223971;1235;141124;-64
2022/10/03 08:55:57;;;;;;;6.70;2.40;;;;;;;13.31;67.02;98764.60;224099;1240;139093;-63
2022/10/03 09:01:25;;;;;;;5.50;2.00;;;;;;;13.31;67.12;98761.73;223929;1245;140595;-65
2022/10/03 09:06:31;;;;;;;4.70;1.90;;;;;;;13.39;67.20;98762.90;223998;1251;139935;-71
2022/10/03 09:12:05;;;;;;;6.90;2.10;;;;;;;13.48;67.43;98757.55;223987;1251;140260;-67
2022/10/03 09:17:50;;;;;;;7.40;1.70;;;;;;;13.60;67.34;98754.98;223825;1257;139799;-69
2022/10/03 09:23:17;;;;;;;6.60;1.90;;;;;;;13.69;67.24;98763.38;224091;1249;139295;-68
2022/10/03 09:28:22;;;;;;;6.70;1.50;;;;;;;13.70;66.65;98760.66;224001;1251;140469;-66
2022/10/03 09:33:54;;;;;;;5.90;1.40;;;;;;;13.71;66.47;98762.35;224153;1245;140448;-66
2022/10/03 09:39:19;;;;;;;5.50;1.80;;;;;;;13.66;66.62;98762.70;223882;1241;139129;-66
2022/10/03 09:44:44;;;;;;;31.10;15.20;;;;;;;13.66;66.79;98774.14;224633;1252;139593;-66
2022/10/03 09:50:18;;;;;;;5.30;1.50;;;;;;;13.67;66.94;98776.89;224676;1244;139924;-65
2022/10/03 09:55:33;;;;;;;3.80;1.50;;;;;;;13.68;66.66;98774.48;224035;1251;140633;-66
2022/10/03 10:01:14;;;;;;;5.40;1.90;;;;;;;13.69;66.58;98771.43;223999;1251;140527;-67
2022/10/03 10:06:45;;;;;;;3.30;1.50;;;;;;;13.66;66.43;98766.80;224718;1230;140859;-66
2022/10/03 10:12:03;;;;;;;2.00;1.30;;;;;;;13.61;66.34;98767.75;224058;1251;139000;-66
2022/10/03 10:17:09;;;;;;;3.60;1.20;;;;;;;13.58;66.37;98769.27;224046;1248;139791;-66
2022/10/03 10:22:50;;;;;;;7.40;1.70;;;;;;;13.59;66.28;98769.18;224147;1244;139999;-67
2022/10/03 10:28:20;;;;;;;5.90;1.70;;;;;;;13.57;66.27;98776.11;223612;1251;140638;-66
2022/10/03 10:33:44;;;;;;;7.60;1.70;;;;;;;13.55;66.38;98776.44;224046;1247;139716;-68
2022/10/03 10:39:27;;;;;;;6.40;1.40;;;;;;;13.55;66.36;98781.09;224019;1253;141919;-67
2022/10/03 10:45:05;;;;;;;3.70;1.30;;;;;;;13.52;66.15;98774.21;223935;1251;139198;-67
2022/10/03 10:50:29;;;;;;;2.40;1.20;;;;;;;13.57;66.34;98775.01;223979;1244;140001;-67
2022/10/03 10:56:05;;;;;;;4.20;1.70;;;;;;;13.63;66.25;98768.16;224664;1244;139335;-68
2022/10/03 11:01:43;;;;;;;7.00;5.00;;;;;;;13.63;66.44;98769.71;223980;1245;139324;-67
2022/10/03 11:07:41;;;;;;;9.40;4.80;;;;;;;13.63;66.20;98775.40;224019;1251;140120;-70
2022/10/03 11:13:05;;;;;;;3.50;1.20;;;;;;;13.59;66.20;98781.64;224127;1242;140037;-67
2022/10/03 11:18:50;;;;;;;3.20;1.40;;;;;;;13.58;66.28;98790.11;223949;1245;139480;-67
2022/10/03 11:24:11;;;;;;;5.20;1.50;;;;;;;13.57;66.45;98788.75;224393;1249;139613;-67
2022/10/03 11:29:39;;;;;;;5.20;1.40;;;;;;;13.59;66.59;98791.42;224017;1255;139266;-66
2022/10/03 11:35:01;;;;;;;3.50;1.10;;;;;;;13.57;66.53;98796.27;224703;1244;139629;-66
2022/10/03 11:40:34;;;;;;;4.60;1.40;;;;;;;13.51;66.61;98802.21;224073;1245;139992;-65
2022/10/03 11:46:00;;;;;;;2.70;1.00;;;;;;;13.51;66.76;98796.93;224771;1241;140363;-67
2022/10/03 11:51:26;;;;;;;3.40;1.10;;;;;;;13.52;66.87;98801.99;223983;1248;140123;-66
2022/10/03 11:56:46;;;;;;;5.90;1.40;;;;;;;13.50;66.79;98805.90;223849;1251;140269;-76
2022/10/03 12:02:00;;;;;;;2.20;1.10;;;;;;;13.46;66.85;98806.20;224045;1245;138999;-71
2022/10/03 12:13:07;;;;;;;4.30;1.30;;;;;;;13.59;66.53;98820.69;224669;1244;139707;-72
2022/10/03 12:18:21;;;;;;;5.20;1.60;;;;;;;13.66;66.82;98819.55;224027;1238;139970;-68
2022/10/03 12:24:01;;;;;;;2.80;1.20;;;;;;;13.77;66.59;98821.74;224115;1252;141286;-66
2022/10/03 12:29:12;;;;;;;3.70;1.40;;;;;;;13.80;66.26;98833.33;224078;1243;138932;-75
2022/10/03 12:34:42;;;;;;;3.10;1.40;;;;;;;13.90;66.15;98838.75;224887;1238;139365;-70
2022/10/03 12:40:04;;;;;;;3.30;1.40;;;;;;;14.00;65.83;98838.46;224237;1252;139580;-77
2022/10/03 12:45:14;;;;;;;3.00;1.30;;;;;;;14.05;65.70;98834.04;224738;1244;139705;-69
2022/10/03 12:50:55;;;;;;;6.60;1.60;;;;;;;14.07;65.45;98837.23;224109;1246;138644;-71
2022/10/03 12:56:12;;;;;;;3.30;1.60;;;;;;;14.05;65.26;98836.84;224060;1246;140486;-71
2022/10/03 13:02:03;;;;;;;4.50;1.50;;;;;;;14.04;64.98;98838.18;224091;1247;140928;-71
2022/10/03 13:07:27;;;;;;;4.00;1.50;;;;;;;14.12;64.92;98835.60;223690;1251;139934;-74
2022/10/03 13:12:56;;;;;;;3.00;1.10;;;;;;;14.13;64.71;98834.58;224050;1251;139091;-76
2022/10/03 13:18:24;;;;;;;4.10;1.30;;;;;;;14.13;64.65;98832.66;224055;1245;139717;-77
2022/10/03 13:23:31;;;;;;;5.70;1.80;;;;;;;14.16;64.68;98814.58;224044;1248;139934;-72
2022/10/03 13:28:58;;;;;;;6.60;1.60;;;;;;;14.19;64.71;98816.09;224233;1248;139643;-75
2022/10/03 13:34:16;;;;;;;5.20;1.50;;;;;;;14.28;64.79;98822.54;224212;1251;139359;-71
2022/10/03 13:39:53;;;;;;;4.20;1.40;;;;;;;14.40;64.88;98828.65;224008;1251;139628;-70
2022/10/03 13:45:13;;;;;;;3.90;1.40;;;;;;;14.48;64.76;98824.98;223868;1252;139371;-74
2022/10/03 13:50:39;;;;;;;4.20;1.40;;;;;;;14.54;64.64;98829.88;224086;1245;140401;-77
2022/10/03 13:55:52;;;;;;;4.40;1.70;;;;;;;14.59;64.65;98831.27;224042;1245;139847;-72
2022/10/03 14:01:22;;;;;;;4.50;1.80;;;;;;;14.62;64.37;98840.11;224082;1251;139400;-70
2022/10/03 14:06:53;;;;;;;5.30;1.60;;;;;;;14.64;64.03;98840.30;223992;1250;138830;-71
2022/10/03 14:12:17;;;;;;;5.50;1.80;;;;;;;14.69;63.79;98852.46;224679;1238;139429;-69
2022/10/03 14:17:45;;;;;;;3.90;1.50;;;;;;;14.69;63.59;98856.86;224065;1251;139049;-70
2022/10/03 14:23:13;;;;;;;5.80;1.70;;;;;;;14.67;63.53;98860.59;224769;1244;140679;-68
2022/10/03 14:28:56;;;;;;;3.10;1.70;;;;;;;14.60;63.33;98869.21;224863;1244;138942;-74
2022/10/03 14:34:34;;;;;;;3.80;1.50;;;;;;;14.56;63.34;98871.88;224183;1251;139201;-71
2022/10/03 14:39:52;;;;;;;6.20;2.10;;;;;;;14.54;63.24;98874.38;224762;1242;139489;-78
2022/10/03 14:45:12;;;;;;;5.00;1.70;;;;;;;14.52;63.20;98875.45;224656;1237;139272;-73
2022/10/03 14:50:21;;;;;;;2.50;1.70;;;;;;;14.57;63.18;98874.31;223853;1250;139222;-73
2022/10/03 14:55:37;;;;;;;7.00;1.90;;;;;;;14.63;63.07;98869.66;224009;1248;139529;-72
2022/10/03 15:00:44;;;;;;;7.90;4.10;;;;;;;14.67;62.70;98873.45;223940;1251;139718;-72
2022/10/03 15:05:58;;;;;;;9.40;2.30;;;;;;;14.64;62.35;98873.14;224746;1244;141152;-71
2022/10/03 15:11:05;;;;;;;4.60;2.40;;;;;;;14.61;62.25;98875.21;224724;1244;139555;-72
2022/10/03 15:16:13;;;;;;;2.70;1.80;;;;;;;14.56;62.03;98881.51;224172;1241;139544;-70
2022/10/03 15:21:17;;;;;;;3.70;2.00;;;;;;;14.45;61.89;98886.27;224008;1245;139221;-68
2022/10/03 15:26:23;;;;;;;3.50;2.10;;;;;;;14.36;61.82;98883.63;223999;1252;140856;-67
2022/10/03 15:31:32;;;;;;;5.60;2.40;;;;;;;14.33;61.73;98891.23;224721;1252;139893;-69
2022/10/03 15:36:40;;;;;;;5.00;2.00;;;;;;;14.29;61.63;98895.22;224002;1250;139748;-69
2022/10/03 15:41:53;;;;;;;6.90;3.40;;;;;;;14.27;61.59;98894.35;224852;1243;139576;-70
2022/10/03 15:47:04;;;;;;;3.30;1.90;;;;;;;14.22;61.55;98901.73;224699;1238;139065;-69
2022/10/03 15:52:30;;;;;;;3.80;1.80;;;;;;;14.22;61.63;98903.66;224130;1248;140238;-68
2022/10/03 15:57:41;;;;;;;3.60;2.20;;;;;;;14.19;61.69;98902.27;223974;1250;139265;-72
2022/10/03 16:03:15;;;;;;;5.50;2.30;;;;;;;14.13;61.89;98908.84;224661;1244;139125;-73
2022/10/03 16:08:21;;;;;;;6.00;1.80;;;;;;;14.07;61.85;98911.25;224697;1238;139937;-70
2022/10/03 16:13:38;;;;;;;8.10;2.10;;;;;;;14.04;61.83;98918.66;224625;1242;138932;-72
2022/10/03 16:18:50;;;;;;;3.90;2.00;;;;;;;13.96;61.98;98922.09;223909;1238;139543;-68
2022/10/03 16:23:58;;;;;;;3.70;2.20;;;;;;;13.94;62.38;98930.48;224008;1251;139783;-73
2022/10/03 16:29:15;;;;;;;7.70;2.40;;;;;;;13.94;62.50;98936.85;223406;1243;139690;-73
2022/10/03 16:34:21;;;;;;;7.10;2.20;;;;;;;13.98;62.55;98945.86;224161;1248;139595;-70
2022/10/03 16:39:35;;;;;;;6.70;2.70;;;;;;;14.02;62.60;98948.95;223952;1248;139122;-66
2022/10/03 16:44:44;;;;;;;4.60;2.50;;;;;;;14.03;62.98;98943.72;223974;1250;139412;-65
2022/10/03 16:55:44;;;;;;;6.00;2.30;;;;;;;13.96;63.27;98952.95;224724;1242;139465;-67
2022/10/03 17:01:07;;;;;;;5.00;2.90;;;;;;;13.90;63.44;98955.58;224015;1251;140437;-66
2022/10/03 17:06:33;;;;;;;6.50;2.80;;;;;;;13.85;63.52;98962.25;223988;1245;139015;-67
2022/10/03 17:11:38;;;;;;;6.60;2.80;;;;;;;13.85;63.83;98967.94;223935;1251;141090;-66
2022/10/03 17:17:11;;;;;;;6.40;2.70;;;;;;;13.90;63.98;98975.37;224740;1251;139557;-68
2022/10/03 17:22:41;;;;;;;6.20;2.80;;;;;;;13.92;64.05;98975.02;224114;1245;139310;-66
2022/10/03 17:27:48;;;;;;;5.80;2.90;;;;;;;13.92;64.15;98981.80;224728;1243;139765;-67
2022/10/03 17:33:05;;;;;;;8.10;3.40;;;;;;;13.88;63.95;98983.73;224756;1242;139723;-68
2022/10/03 17:38:17;;;;;;;6.70;3.80;;;;;;;13.82;64.07;98984.17;223882;1243;140448;-70
2022/10/03 17:43:48;;;;;;;5.50;3.10;;;;;;;13.80;63.99;98986.51;224011;1257;139923;-67
2022/10/03 17:49:06;;;;;;;6.00;3.20;;;;;;;13.80;63.96;98994.02;224620;1249;140150;-67
2022/10/03 17:54:15;;;;;;;6.60;3.60;;;;;;;13.81;64.15;98994.45;224639;1243;139330;-67
2022/10/03 17:59:31;;;;;;;10.50;3.10;;;;;;;13.83;64.36;98997.11;224019;1245;140169;-67
2022/10/03 18:04:40;;;;;;;9.60;3.70;;;;;;;13.86;64.38;98997.95;224797;1242;139577;-69
2022/10/03 18:09:49;;;;;;;6.80;3.20;;;;;;;13.86;64.14;98996.17;223973;1251;138926;-68
2022/10/03 18:15:21;;;;;;;12.80;6.60;;;;;;;13.83;64.25;99000.53;223950;1257;139756;-66
2022/10/03 18:21:04;;;;;;;7.80;3.10;;;;;;;13.79;64.29;99005.81;224722;1248;139778;-66
2022/10/03 18:26:29;;;;;;;9.40;3.30;;;;;;;13.80;64.20;99010.06;223977;1248;139686;-66
2022/10/03 18:31:35;;;;;;;6.80;3.40;;;;;;;13.83;64.46;99012.66;223965;1252;139488;-68
2022/10/03 18:36:45;;;;;;;9.00;3.40;;;;;;;13.86;64.39;99012.42;223984;1254;139426;-68
2022/10/03 18:41:54;;;;;;;8.10;4.00;;;;;;;13.87;64.35;99023.61;224635;1233;138874;-67
2022/10/03 18:47:32;;;;;;;8.80;3.60;;;;;;;13.86;64.24;99035.77;224668;1244;139459;-69
2022/10/03 18:52:51;;;;;;;6.30;3.10;;;;;;;13.85;64.42;99033.00;224772;1244;139457;-66
2022/10/03 18:58:11;;;;;;;5.30;2.80;;;;;;;13.77;64.22;99040.77;224677;1240;139642;-74
2022/10/03 19:03:18;;;;;;;9.30;4.60;;;;;;;13.71;64.62;99037.30;223938;1250;139705;-73
2022/10/03 19:08:31;;;;;;;4.40;2.30;;;;;;;13.74;64.46;99038.48;224688;1245;139089;-71
2022/10/03 19:13:59;;;;;;;2.20;1.60;;;;;;;13.57;63.81;99041.39;223983;1255;138978;-75
2022/10/03 19:19:33;;;;;;;3.80;1.60;;;;;;;13.35;63.37;99041.58;223990;1251;139192;-72
2022/10/03 19:24:38;;;;;;;4.10;2.80;;;;;;;13.12;63.33;99044.44;223776;1257;139872;-71
2022/10/03 19:30:01;;;;;;;4.80;1.60;;;;;;;12.90;63.26;99040.11;224473;1247;139596;-72
2022/10/03 19:35:04;;;;;;;3.20;2.50;;;;;;;12.77;63.49;99039.08;224085;1250;139490;-75
2022/10/03 19:40:14;;;;;;;2.70;1.70;;;;;;;12.71;63.66;99043.98;224034;1250;140566;-72
2022/10/03 19:45:18;;;;;;;2.60;1.90;;;;;;;12.70;63.89;99048.16;223995;1245;140519;-73
2022/10/03 19:50:31;;;;;;;3.40;1.80;;;;;;;12.71;63.93;99047.87;224572;1237;139458;-71
2022/10/03 19:55:39;;;;;;;3.60;2.10;;;;;;;12.71;64.05;99051.86;224091;1257;139868;-76
2022/10/03 20:00:55;;;;;;;3.30;2.10;;;;;;;12.71;64.16;99050.73;223930;1251;139762;-72
2022/10/03 20:06:02;;;;;;;4.30;2.50;;;;;;;12.73;64.41;99056.10;224018;1250;140260;-75
2022/10/03 20:11:26;;;;;;;5.00;2.40;;;;;;;12.75;64.58;99058.86;224131;1251;139380;-69
2022/10/03 20:16:34;;;;;;;6.30;3.20;;;;;;;12.80;65.10;99054.75;224069;1249;139658;-69
2022/10/03 20:21:38;;;;;;;6.80;3.60;;;;;;;12.90;65.48;99053.48;224056;1254;140335;-68
2022/10/03 20:27:13;;;;;;;6.10;3.20;;;;;;;12.99;65.51;99053.72;224056;1250;139262;-65
2022/10/03 20:32:18;;;;;;;7.30;3.30;;;;;;;13.07;65.87;99055.88;224518;1238;139518;-68
2022/10/03 20:37:39;;;;;;;10.60;3.40;;;;;;;13.09;65.92;99056.77;224041;1257;139532;-67
2022/10/03 20:42:46;;;;;;;6.50;3.10;;;;;;;13.09;65.86;99052.68;224641;1250;139798;-68
2022/10/03 20:48:11;;;;;;;8.10;3.60;;;;;;;13.11;65.93;99053.95;224630;1244;140576;-67
2022/10/03 20:53:19;;;;;;;8.20;2.80;;;;;;;13.13;66.16;99051.63;224122;1245;139811;-69
2022/10/03 20:58:27;;;;;;;6.10;3.20;;;;;;;13.18;66.27;99046.70;224137;1248;139770;-68
2022/10/03 21:03:38;;;;;;;7.70;3.40;;;;;;;13.21;66.30;99048.98;223993;1250;141035;-65
2022/10/03 21:08:40;;;;;;;7.20;2.90;;;;;;;13.21;66.39;99046.46;223919;1257;139288;-68
2022/10/03 21:13:51;;;;;;;6.30;2.40;;;;;;;13.20;66.09;99053.14;223985;1246;139894;-71
2022/10/03 21:19:05;;;;;;;6.20;2.80;;;;;;;13.22;66.30;99056.58;223960;1251;140232;-70
2022/10/03 21:24:26;;;;;;;8.50;2.80;;;;;;;13.23;66.36;99057.33;224714;1244;140627;-68
2022/10/03 21:29:33;;;;;;;3.40;2.00;;;;;;;13.24;66.52;99056.74;223975;1251;140535;-72
2022/10/03 21:35:14;;;;;;;4.50;2.00;;;;;;;13.22;66.24;99065.42;224796;1241;138998;-73
2022/10/03 21:40:45;;;;;;;7.20;2.90;;;;;;;13.20;66.31;99068.27;223869;1254;140409;-74
2022/10/03 21:46:05;;;;;;;8.60;3.20;;;;;;;13.18;66.52;99065.57;224053;1243;139692;-74
2022/10/03 21:51:31;;;;;;;6.70;3.40;;;;;;;13.23;66.53;99065.02;223997;1251;140758;-73
2022/10/03 21:57:00;;;;;;;8.80;3.30;;;;;;;13.30;66.69;99066.16;224638;1244;139343;-73
2022/10/03 22:02:15;;;;;;;8.60;3.40;;;;;;;13.32;66.49;99066.71;224478;1243;139891;-73
2022/10/03 22:07:32;;;;;;;9.40;3.70;;;;;;;13.34;66.61;99055.49;223980;1250;139250;-72
2022/10/03 22:12:41;;;;;;;9.00;2.90;;;;;;;13.35;66.62;99064.14;224765;1244;139237;-70
2022/10/03 22:17:53;;;;;;;6.30;2.90;;;;;;;13.35;66.60;99060.22;224028;1251;139790;-77
2022/10/03 22:23:32;;;;;;;8.90;3.90;;;;;;;13.40;66.63;99064.13;224157;1251;139518;-74
2022/10/03 22:28:55;;;;;;;9.10;3.10;;;;;;;13.39;66.69;99060.63;224173;1254;139326;-73
2022/10/03 22:34:24;;;;;;;5.90;3.00;;;;;;;13.38;66.63;99060.38;224089;1251;140044;-78
2022/10/03 22:39:28;;;;;;;9.30;3.60;;;;;;;13.35;66.68;99060.23;224049;1254;139085;-77
2022/10/03 22:44:36;;;;;;;8.50;3.50;;;;;;;13.32;66.67;99060.10;224076;1251;139791;-70
2022/10/03 22:49:45;;;;;;;10.10;3.40;;;;;;;13.34;66.94;99054.23;223877;1251;140738;-67
2022/10/03 22:54:50;;;;;;;11.70;3.70;;;;;;;13.40;66.85;99055.27;223972;1254;140084;-72
2022/10/03 23:00:04;;;;;;;8.40;3.90;;;;;;;13.40;66.95;99056.84;224008;1254;140534;-70
2022/10/03 23:05:14;;;;;;;9.70;3.80;;;;;;;13.40;66.95;99058.98;224766;1250;139276;-72
2022/10/03 23:10:45;;;;;;;9.50;3.80;;;;;;;13.38;66.91;99054.48;224747;1244;139714;-78
2022/10/03 23:15:53;;;;;;;10.90;3.90;;;;;;;13.40;67.02;99058.48;224046;1245;139760;-77
2022/10/03 23:21:08;;;;;;;10.30;3.50;;;;;;;13.41;67.11;99048.39;224035;1254;140449;-72
2022/10/03 23:26:29;;;;;;;9.20;3.40;;;;;;;13.48;67.08;99050.03;224069;1251;140309;-79
2022/10/03 23:31:51;;;;;;;13.10;4.20;;;;;;;13.50;67.10;99051.09;224071;1251;139130;-73
2022/10/03 23:37:01;;;;;;;10.60;3.20;;;;;;;13.46;66.99;99048.92;224021;1255;139739;-75
2022/10/03 23:42:13;;;;;;;9.20;3.20;;;;;;;13.40;66.99;99044.39;224017;1244;139523;-78
2022/10/03 23:47:22;;;;;;;7.50;2.70;;;;;;;13.35;67.12;99049.02;224808;1244;139265;-77
2022/10/03 23:52:37;;;;;;;8.60;3.00;;;;;;;13.32;67.00;99041.59;224004;1251;140838;-78
2022/10/03 23:57:41;;;;;;;10.60;3.50;;;;;;;13.32;67.06;99047.29;224782;1238;139751;-71
